MMTO/TLC METAR and TAF weather

Enter ICAO airport designator
Station Type Date Time Source
MMTO METAR 2020/03/31 06:49 UTC NOAA

MMTO 310649Z 34003KT 7SM FEW020 13/05 A3036 RMK 8/500


Station Type Date Time Source
MMTO Decoded METAR 2020/03/31 06:49 UTC NOAA

Toluca / Jose Maria , Mexico (MMTO) 19-21N 099-34W
Mar 31, 2020 - 02:49 AM EDT / 2020.03.31 0649 UTC
Wind: from the NNW (340 degrees) at 3 MPH (3 KT):0
Visibility: 7 mile(s):0
Sky conditions: mostly clear
Temperature: 55 F (13 C)
Dew Point: 41 F (5 C)
Relative Humidity: 58%
Pressure (altimeter): 30.36 in. Hg (1028 hPa)
ob: MMTO 310649Z 34003KT 7SM FEW020 13/05 A3036 RMK 8/500
cycle: 7

Station Type Date Time Source
MMTO TAF 2020/03/31 06:57 UTC NOAA

TAF TAF MMTO 310454Z 3106/0112 34006KT P6SM SCT015 TX27/3121Z TN06/3112Z
FM311000 00000KT 4SM SKC
TEMPO 3112/3116 3SM BR HZ SCT015
FM311800 33012KT 6SM HZ SCT015 BKN250
FM010600 34005KT 6SM HZ SCT015
FM011000 00000KT 4SM HZ SKC

Example: see airport list